Terminal Aerodrome Forecast
Issued by NWS

Home | Current Version | Previous Version | Text Only | Print | Product List | Glossary On
Versions: 1 2 3 4 5 6 7 8 9 10 11 12 13 14 15 16 17 18 19 20
000
FTUS43 KGRB 051136
TAFATW
TAF
KATW 051136Z 0512/0612 VRB03KT 3SM BR BKN020
      TEMPO 0512/0513 1SM BR BKN002
     FM051500 18005KT 5SM HZ BKN022
     FM051900 19007KT P6SM BKN035
     FM052200 18006KT P6SM SCT035
     FM060400 18004KT 3SM BR SCT150
      TEMPO 0604/0608 1SM BR SCT002
     FM060800 17003KT 2SM BR SCT150
      TEMPO 0608/0612 1/2SM FG BKN002=

USA.gov is the U.S. government's official web portal to all federal, state and local government web resources and services.